sensor_id;sensor_type;location;lat;lon;timestamp;temperature;humidity
28725;DHT22;43472;48.980;9.646;2023-08-06T00:03:59;14.50;99.90
28725;DHT22;43472;48.980;9.646;2023-08-06T00:09:02;14.50;99.90
28725;DHT22;43472;48.980;9.646;2023-08-06T00:14:04;14.70;99.90
28725;DHT22;43472;48.980;9.646;2023-08-06T00:24:09;14.40;99.90
28725;DHT22;43472;48.980;9.646;2023-08-06T00:34:13;14.60;99.90
28725;DHT22;43472;48.980;9.646;2023-08-06T00:39:15;14.60;99.90
28725;DHT22;43472;48.980;9.646;2023-08-06T00:44:17;14.50;99.90
28725;DHT22;43472;48.980;9.646;2023-08-06T00:49:19;14.60;99.90
28725;DHT22;43472;48.980;9.646;2023-08-06T00:59:24;14.50;99.90
28725;DHT22;43472;48.980;9.646;2023-08-06T01:04:27;14.50;99.90
28725;DHT22;43472;48.980;9.646;2023-08-06T01:09:50;14.50;99.90
28725;DHT22;43472;48.980;9.646;2023-08-06T01:15:22;14.40;99.90
28725;DHT22;43472;48.980;9.646;2023-08-06T01:20:30;14.40;99.90
28725;DHT22;43472;48.980;9.646;2023-08-06T01:30:43;14.60;99.90
28725;DHT22;43472;48.980;9.646;2023-08-06T01:35:49;14.50;99.90
28725;DHT22;43472;48.980;9.646;2023-08-06T01:45:54;14.60;99.90
28725;DHT22;43472;48.980;9.646;2023-08-06T02:01:02;14.20;99.90
28725;DHT22;43472;48.980;9.646;2023-08-06T02:26:14;14.20;99.90
28725;DHT22;43472;48.980;9.646;2023-08-06T02:31:16;14.40;99.90
28725;DHT22;43472;48.980;9.646;2023-08-06T02:41:34;14.40;99.90
28725;DHT22;43472;48.980;9.646;2023-08-06T02:46:36;14.60;99.90
28725;DHT22;43472;48.980;9.646;2023-08-06T02:51:38;14.60;99.90
28725;DHT22;43472;48.980;9.646;2023-08-06T02:56:43;14.60;99.90
28725;DHT22;43472;48.980;9.646;2023-08-06T03:01:46;14.60;99.90
28725;DHT22;43472;48.980;9.646;2023-08-06T03:06:49;14.40;99.90
28725;DHT22;43472;48.980;9.646;2023-08-06T03:11:52;14.40;99.90
28725;DHT22;43472;48.980;9.646;2023-08-06T03:16:54;14.50;99.90
28725;DHT22;43472;48.980;9.646;2023-08-06T03:21:56;14.40;99.90
28725;DHT22;43472;48.980;9.646;2023-08-06T03:26:57;14.50;99.90
28725;DHT22;43472;48.980;9.646;2023-08-06T03:31:59;14.50;99.90
28725;DHT22;43472;48.980;9.646;2023-08-06T03:37:01;14.50;99.90
28725;DHT22;43472;48.980;9.646;2023-08-06T03:42:03;14.70;99.90
28725;DHT22;43472;48.980;9.646;2023-08-06T03:47:05;14.60;99.90
28725;DHT22;43472;48.980;9.646;2023-08-06T03:52:07;14.60;99.90
28725;DHT22;43472;48.980;9.646;2023-08-06T03:57:09;14.50;99.90
28725;DHT22;43472;48.980;9.646;2023-08-06T04:02:12;15.00;99.90
28725;DHT22;43472;48.980;9.646;2023-08-06T04:07:30;14.50;99.90
28725;DHT22;43472;48.980;9.646;2023-08-06T04:12:32;14.60;99.90
28725;DHT22;43472;48.980;9.646;2023-08-06T04:17:37;14.70;99.90
28725;DHT22;43472;48.980;9.646;2023-08-06T04:22:39;14.60;99.90
28725;DHT22;43472;48.980;9.646;2023-08-06T04:27:41;14.60;99.90
28725;DHT22;43472;48.980;9.646;2023-08-06T04:32:43;14.60;99.90
28725;DHT22;43472;48.980;9.646;2023-08-06T04:37:45;14.70;99.90
28725;DHT22;43472;48.980;9.646;2023-08-06T04:42:46;14.60;99.90
28725;DHT22;43472;48.980;9.646;2023-08-06T04:47:48;14.70;99.90
28725;DHT22;43472;48.980;9.646;2023-08-06T04:52:50;14.50;99.90
28725;DHT22;43472;48.980;9.646;2023-08-06T04:57:52;14.40;99.90
28725;DHT22;43472;48.980;9.646;2023-08-06T05:02:53;14.40;99.90
28725;DHT22;43472;48.980;9.646;2023-08-06T05:07:57;14.30;99.90
28725;DHT22;43472;48.980;9.646;2023-08-06T05:12:59;14.20;99.90
28725;DHT22;43472;48.980;9.646;2023-08-06T05:18:00;14.40;99.90
28725;DHT22;43472;48.980;9.646;2023-08-06T05:23:02;14.20;99.90
28725;DHT22;43472;48.980;9.646;2023-08-06T05:28:04;14.10;99.90
28725;DHT22;43472;48.980;9.646;2023-08-06T05:33:06;14.20;99.90
28725;DHT22;43472;48.980;9.646;2023-08-06T05:38:08;14.90;99.90
28725;DHT22;43472;48.980;9.646;2023-08-06T05:43:10;14.20;99.90
28725;DHT22;43472;48.980;9.646;2023-08-06T05:48:12;14.20;99.90
28725;DHT22;43472;48.980;9.646;2023-08-06T05:53:14;14.40;99.90
28725;DHT22;43472;48.980;9.646;2023-08-06T05:58:16;14.30;99.90
28725;DHT22;43472;48.980;9.646;2023-08-06T06:03:18;14.30;99.90
28725;DHT22;43472;48.980;9.646;2023-08-06T06:08:19;14.40;99.90
28725;DHT22;43472;48.980;9.646;2023-08-06T06:13:21;14.50;99.90
28725;DHT22;43472;48.980;9.646;2023-08-06T06:18:23;14.70;99.90
28725;DHT22;43472;48.980;9.646;2023-08-06T06:23:25;14.80;99.90
28725;DHT22;43472;48.980;9.646;2023-08-06T06:28:27;14.70;99.90
28725;DHT22;43472;48.980;9.646;2023-08-06T06:33:28;14.80;99.90
28725;DHT22;43472;48.980;9.646;2023-08-06T06:38:30;14.70;99.90
28725;DHT22;43472;48.980;9.646;2023-08-06T06:43:32;14.60;99.90
28725;DHT22;43472;48.980;9.646;2023-08-06T06:48:34;14.80;99.90
28725;DHT22;43472;48.980;9.646;2023-08-06T06:53:36;14.60;99.90
28725;DHT22;43472;48.980;9.646;2023-08-06T06:58:38;14.70;99.90
28725;DHT22;43472;48.980;9.646;2023-08-06T07:03:42;14.50;99.90
28725;DHT22;43472;48.980;9.646;2023-08-06T07:08:44;14.70;99.90
28725;DHT22;43472;48.980;9.646;2023-08-06T07:13:46;14.40;99.90
28725;DHT22;43472;48.980;9.646;2023-08-06T07:18:48;14.40;99.90
28725;DHT22;43472;48.980;9.646;2023-08-06T07:23:50;14.60;99.90
28725;DHT22;43472;48.980;9.646;2023-08-06T07:28:52;14.40;99.90
28725;DHT22;43472;48.980;9.646;2023-08-06T07:33:53;14.30;99.90
28725;DHT22;43472;48.980;9.646;2023-08-06T07:38:55;14.20;99.90
28725;DHT22;43472;48.980;9.646;2023-08-06T07:43:57;14.20;99.90
28725;DHT22;43472;48.980;9.646;2023-08-06T07:48:59;14.30;99.90
28725;DHT22;43472;48.980;9.646;2023-08-06T07:54:01;14.50;99.90
28725;DHT22;43472;48.980;9.646;2023-08-06T07:59:02;14.50;99.90
28725;DHT22;43472;48.980;9.646;2023-08-06T08:04:04;14.50;99.90
28725;DHT22;43472;48.980;9.646;2023-08-06T08:09:06;14.20;99.90
28725;DHT22;43472;48.980;9.646;2023-08-06T08:14:08;14.20;99.90
28725;DHT22;43472;48.980;9.646;2023-08-06T08:19:10;14.30;99.90
28725;DHT22;43472;48.980;9.646;2023-08-06T08:24:12;14.20;99.90
28725;DHT22;43472;48.980;9.646;2023-08-06T08:34:16;14.30;99.90
28725;DHT22;43472;48.980;9.646;2023-08-06T08:39:18;14.60;99.90
28725;DHT22;43472;48.980;9.646;2023-08-06T08:44:20;14.40;99.90
28725;DHT22;43472;48.980;9.646;2023-08-06T08:49:23;14.30;99.90
28725;DHT22;43472;48.980;9.646;2023-08-06T08:54:26;14.50;99.90
28725;DHT22;43472;48.980;9.646;2023-08-06T08:59:28;14.90;99.90
28725;DHT22;43472;48.980;9.646;2023-08-06T09:04:31;14.70;99.90
28725;DHT22;43472;48.980;9.646;2023-08-06T09:09:36;14.70;99.90
28725;DHT22;43472;48.980;9.646;2023-08-06T09:14:39;15.00;99.90
28725;DHT22;43472;48.980;9.646;2023-08-06T09:19:44;14.80;99.90
28725;DHT22;43472;48.980;9.646;2023-08-06T09:24:48;14.90;99.90
28725;DHT22;43472;48.980;9.646;2023-08-06T09:29:50;14.70;99.90
28725;DHT22;43472;48.980;9.646;2023-08-06T09:34:56;14.70;99.90
28725;DHT22;43472;48.980;9.646;2023-08-06T09:39:58;14.80;99.90
28725;DHT22;43472;48.980;9.646;2023-08-06T09:45:06;14.80;99.90
28725;DHT22;43472;48.980;9.646;2023-08-06T09:50:20;14.50;99.90
28725;DHT22;43472;48.980;9.646;2023-08-06T09:55:23;14.60;99.90
28725;DHT22;43472;48.980;9.646;2023-08-06T10:00:26;14.80;99.90
28725;DHT22;43472;48.980;9.646;2023-08-06T10:05:31;14.70;99.90
28725;DHT22;43472;48.980;9.646;2023-08-06T10:10:34;14.60;99.90
28725;DHT22;43472;48.980;9.646;2023-08-06T10:15:37;14.50;99.90
28725;DHT22;43472;48.980;9.646;2023-08-06T10:20:40;14.80;99.90
28725;DHT22;43472;48.980;9.646;2023-08-06T10:25:42;15.10;99.90
28725;DHT22;43472;48.980;9.646;2023-08-06T10:30:44;16.10;99.90
28725;DHT22;43472;48.980;9.646;2023-08-06T10:35:47;15.60;99.90
28725;DHT22;43472;48.980;9.646;2023-08-06T10:45:57;15.20;99.90
28725;DHT22;43472;48.980;9.646;2023-08-06T10:51:00;14.60;99.90
28725;DHT22;43472;48.980;9.646;2023-08-06T10:56:15;14.60;99.90
28725;DHT22;43472;48.980;9.646;2023-08-06T11:01:17;15.10;99.90
28725;DHT22;43472;48.980;9.646;2023-08-06T11:06:21;14.90;99.90
28725;DHT22;43472;48.980;9.646;2023-08-06T11:11:23;14.90;99.90
28725;DHT22;43472;48.980;9.646;2023-08-06T11:16:26;14.60;99.90
28725;DHT22;43472;48.980;9.646;2023-08-06T11:21:28;14.70;99.90
28725;DHT22;43472;48.980;9.646;2023-08-06T11:26:31;14.50;99.90
28725;DHT22;43472;48.980;9.646;2023-08-06T11:31:36;14.80;99.90
28725;DHT22;43472;48.980;9.646;2023-08-06T11:36:40;14.60;99.90
28725;DHT22;43472;48.980;9.646;2023-08-06T11:41:42;14.50;99.90
28725;DHT22;43472;48.980;9.646;2023-08-06T11:46:53;14.30;99.90
28725;DHT22;43472;48.980;9.646;2023-08-06T11:51:57;14.30;99.90
28725;DHT22;43472;48.980;9.646;2023-08-06T11:56:59;14.20;99.90
28725;DHT22;43472;48.980;9.646;2023-08-06T12:02:04;14.00;99.90
28725;DHT22;43472;48.980;9.646;2023-08-06T12:07:10;13.80;99.90
28725;DHT22;43472;48.980;9.646;2023-08-06T12:12:11;14.00;99.90
28725;DHT22;43472;48.980;9.646;2023-08-06T12:17:13;14.00;99.90
28725;DHT22;43472;48.980;9.646;2023-08-06T12:22:15;14.30;99.90
28725;DHT22;43472;48.980;9.646;2023-08-06T12:27:17;13.90;99.90
28725;DHT22;43472;48.980;9.646;2023-08-06T12:32:19;13.90;99.90
28725;DHT22;43472;48.980;9.646;2023-08-06T12:37:21;13.80;99.90
28725;DHT22;43472;48.980;9.646;2023-08-06T12:42:24;13.70;99.90
28725;DHT22;43472;48.980;9.646;2023-08-06T12:47:26;13.60;99.90
28725;DHT22;43472;48.980;9.646;2023-08-06T12:52:28;13.50;99.90
28725;DHT22;43472;48.980;9.646;2023-08-06T12:57:30;13.50;99.90
28725;DHT22;43472;48.980;9.646;2023-08-06T13:02:52;13.60;99.90
28725;DHT22;43472;48.980;9.646;2023-08-06T13:07:54;13.50;99.90
28725;DHT22;43472;48.980;9.646;2023-08-06T13:12:56;13.50;99.90
28725;DHT22;43472;48.980;9.646;2023-08-06T13:17:58;13.50;99.90
28725;DHT22;43472;48.980;9.646;2023-08-06T13:23:00;13.60;99.90
28725;DHT22;43472;48.980;9.646;2023-08-06T13:28:03;13.50;99.90
28725;DHT22;43472;48.980;9.646;2023-08-06T13:33:05;13.40;99.90
28725;DHT22;43472;48.980;9.646;2023-08-06T13:38:08;13.80;99.90
28725;DHT22;43472;48.980;9.646;2023-08-06T13:43:09;14.10;99.90
28725;DHT22;43472;48.980;9.646;2023-08-06T13:48:11;14.00;99.90
28725;DHT22;43472;48.980;9.646;2023-08-06T13:53:13;14.20;99.90
28725;DHT22;43472;48.980;9.646;2023-08-06T13:58:15;14.40;99.90
28725;DHT22;43472;48.980;9.646;2023-08-06T14:03:17;14.30;99.90
28725;DHT22;43472;48.980;9.646;2023-08-06T14:08:19;14.40;99.90
28725;DHT22;43472;48.980;9.646;2023-08-06T14:13:22;14.50;99.90
28725;DHT22;43472;48.980;9.646;2023-08-06T14:18:24;14.70;99.90
28725;DHT22;43472;48.980;9.646;2023-08-06T14:23:26;14.50;99.90
28725;DHT22;43472;48.980;9.646;2023-08-06T14:28:27;14.70;99.90
28725;DHT22;43472;48.980;9.646;2023-08-06T14:33:30;14.70;99.90
28725;DHT22;43472;48.980;9.646;2023-08-06T14:38:32;14.90;99.90
28725;DHT22;43472;48.980;9.646;2023-08-06T14:43:41;14.70;99.90
28725;DHT22;43472;48.980;9.646;2023-08-06T14:48:43;14.90;99.90
28725;DHT22;43472;48.980;9.646;2023-08-06T14:53:44;14.60;99.90
28725;DHT22;43472;48.980;9.646;2023-08-06T14:58:46;14.70;99.90
28725;DHT22;43472;48.980;9.646;2023-08-06T15:03:48;14.80;99.90
28725;DHT22;43472;48.980;9.646;2023-08-06T15:08:50;14.90;99.90
28725;DHT22;43472;48.980;9.646;2023-08-06T15:13:52;15.00;99.90
28725;DHT22;43472;48.980;9.646;2023-08-06T15:18:54;14.90;99.90
28725;DHT22;43472;48.980;9.646;2023-08-06T15:23:56;14.80;99.90
28725;DHT22;43472;48.980;9.646;2023-08-06T15:28:58;14.90;99.90
28725;DHT22;43472;48.980;9.646;2023-08-06T15:33:59;14.70;99.90
28725;DHT22;43472;48.980;9.646;2023-08-06T15:39:02;14.80;99.90
28725;DHT22;43472;48.980;9.646;2023-08-06T15:44:05;14.70;99.90
28725;DHT22;43472;48.980;9.646;2023-08-06T15:49:07;14.70;99.90
28725;DHT22;43472;48.980;9.646;2023-08-06T15:54:09;14.80;99.90
28725;DHT22;43472;48.980;9.646;2023-08-06T15:59:31;14.50;99.90
28725;DHT22;43472;48.980;9.646;2023-08-06T16:04:33;14.00;99.90
28725;DHT22;43472;48.980;9.646;2023-08-06T16:09:35;13.80;99.90
28725;DHT22;43472;48.980;9.646;2023-08-06T16:14:36;14.00;99.90
28725;DHT22;43472;48.980;9.646;2023-08-06T16:19:38;14.00;99.90
28725;DHT22;43472;48.980;9.646;2023-08-06T16:24:40;14.00;99.90
28725;DHT22;43472;48.980;9.646;2023-08-06T16:29:42;14.00;99.90
28725;DHT22;43472;48.980;9.646;2023-08-06T16:34:46;13.90;99.90
28725;DHT22;43472;48.980;9.646;2023-08-06T16:39:49;13.70;99.90
28725;DHT22;43472;48.980;9.646;2023-08-06T16:44:51;13.70;99.90
28725;DHT22;43472;48.980;9.646;2023-08-06T16:49:53;13.70;99.90
28725;DHT22;43472;48.980;9.646;2023-08-06T16:54:55;13.70;99.90
28725;DHT22;43472;48.980;9.646;2023-08-06T16:59:57;13.90;99.90
28725;DHT22;43472;48.980;9.646;2023-08-06T17:04:58;13.90;99.90
28725;DHT22;43472;48.980;9.646;2023-08-06T17:10:00;14.00;99.90
28725;DHT22;43472;48.980;9.646;2023-08-06T17:15:02;13.90;99.90
28725;DHT22;43472;48.980;9.646;2023-08-06T17:20:05;13.90;99.90
28725;DHT22;43472;48.980;9.646;2023-08-06T17:25:07;13.90;99.90
28725;DHT22;43472;48.980;9.646;2023-08-06T17:30:09;13.80;99.90
28725;DHT22;43472;48.980;9.646;2023-08-06T17:35:11;14.00;99.90
28725;DHT22;43472;48.980;9.646;2023-08-06T17:40:13;13.90;99.90
28725;DHT22;43472;48.980;9.646;2023-08-06T17:45:15;13.80;99.90
28725;DHT22;43472;48.980;9.646;2023-08-06T17:50:17;13.90;99.90
28725;DHT22;43472;48.980;9.646;2023-08-06T17:55:19;13.70;99.90
28725;DHT22;43472;48.980;9.646;2023-08-06T18:00:21;13.80;99.90
28725;DHT22;43472;48.980;9.646;2023-08-06T18:05:23;13.80;99.90
28725;DHT22;43472;48.980;9.646;2023-08-06T18:10:25;13.70;99.90
28725;DHT22;43472;48.980;9.646;2023-08-06T18:15:27;13.60;99.90
28725;DHT22;43472;48.980;9.646;2023-08-06T18:20:30;13.60;99.90
28725;DHT22;43472;48.980;9.646;2023-08-06T18:25:32;13.80;99.90
28725;DHT22;43472;48.980;9.646;2023-08-06T18:30:36;13.80;99.90
28725;DHT22;43472;48.980;9.646;2023-08-06T18:35:41;13.80;99.90
28725;DHT22;43472;48.980;9.646;2023-08-06T18:40:42;13.80;99.90
28725;DHT22;43472;48.980;9.646;2023-08-06T18:45:46;13.80;99.90
28725;DHT22;43472;48.980;9.646;2023-08-06T18:50:47;13.80;99.90
28725;DHT22;43472;48.980;9.646;2023-08-06T18:55:50;13.80;99.90
28725;DHT22;43472;48.980;9.646;2023-08-06T19:00:56;13.80;99.90
28725;DHT22;43472;48.980;9.646;2023-08-06T19:06:00;13.80;99.90
28725;DHT22;43472;48.980;9.646;2023-08-06T19:11:04;13.80;99.90
28725;DHT22;43472;48.980;9.646;2023-08-06T19:16:06;13.80;99.90
28725;DHT22;43472;48.980;9.646;2023-08-06T19:21:08;13.40;99.90
28725;DHT22;43472;48.980;9.646;2023-08-06T19:26:10;13.80;99.90
28725;DHT22;43472;48.980;9.646;2023-08-06T19:31:12;13.80;99.90
28725;DHT22;43472;48.980;9.646;2023-08-06T19:36:14;13.80;99.90
28725;DHT22;43472;48.980;9.646;2023-08-06T19:41:17;13.80;99.90
28725;DHT22;43472;48.980;9.646;2023-08-06T19:46:19;13.70;99.90
28725;DHT22;43472;48.980;9.646;2023-08-06T19:51:21;13.30;99.90
28725;DHT22;43472;48.980;9.646;2023-08-06T19:56:23;13.80;99.90
28725;DHT22;43472;48.980;9.646;2023-08-06T20:01:25;14.10;99.90
28725;DHT22;43472;48.980;9.646;2023-08-06T20:06:29;13.90;99.90
28725;DHT22;43472;48.980;9.646;2023-08-06T20:11:31;13.90;99.90
28725;DHT22;43472;48.980;9.646;2023-08-06T20:16:33;13.80;99.90
28725;DHT22;43472;48.980;9.646;2023-08-06T20:21:35;13.60;99.90
28725;DHT22;43472;48.980;9.646;2023-08-06T20:26:37;13.70;99.90
28725;DHT22;43472;48.980;9.646;2023-08-06T20:31:39;13.90;99.90
28725;DHT22;43472;48.980;9.646;2023-08-06T20:36:41;13.90;99.90
28725;DHT22;43472;48.980;9.646;2023-08-06T20:41:43;13.80;99.90
28725;DHT22;43472;48.980;9.646;2023-08-06T20:46:44;13.60;99.90
28725;DHT22;43472;48.980;9.646;2023-08-06T20:51:46;13.60;99.90
28725;DHT22;43472;48.980;9.646;2023-08-06T20:56:48;13.50;99.90
28725;DHT22;43472;48.980;9.646;2023-08-06T21:01:50;13.50;99.90
28725;DHT22;43472;48.980;9.646;2023-08-06T21:06:52;13.20;99.90
28725;DHT22;43472;48.980;9.646;2023-08-06T21:11:54;13.20;99.90
28725;DHT22;43472;48.980;9.646;2023-08-06T21:16:56;12.90;99.90
28725;DHT22;43472;48.980;9.646;2023-08-06T21:21:58;13.00;99.90
28725;DHT22;43472;48.980;9.646;2023-08-06T21:26:59;13.00;99.90
28725;DHT22;43472;48.980;9.646;2023-08-06T21:32:03;12.90;99.90
28725;DHT22;43472;48.980;9.646;2023-08-06T21:37:05;12.80;99.90
28725;DHT22;43472;48.980;9.646;2023-08-06T21:42:07;12.70;99.90
28725;DHT22;43472;48.980;9.646;2023-08-06T21:47:09;12.70;99.90
28725;DHT22;43472;48.980;9.646;2023-08-06T21:52:12;12.60;99.90
28725;DHT22;43472;48.980;9.646;2023-08-06T21:57:14;12.70;99.90
28725;DHT22;43472;48.980;9.646;2023-08-06T22:02:16;12.50;99.90
28725;DHT22;43472;48.980;9.646;2023-08-06T22:07:18;12.70;99.90
28725;DHT22;43472;48.980;9.646;2023-08-06T22:12:20;12.60;99.90
28725;DHT22;43472;48.980;9.646;2023-08-06T22:17:21;12.50;99.90
28725;DHT22;43472;48.980;9.646;2023-08-06T22:22:23;12.30;99.90
28725;DHT22;43472;48.980;9.646;2023-08-06T22:27:25;12.30;99.90
28725;DHT22;43472;48.980;9.646;2023-08-06T22:32:27;12.60;99.90
28725;DHT22;43472;48.980;9.646;2023-08-06T22:37:31;12.50;99.90
28725;DHT22;43472;48.980;9.646;2023-08-06T22:42:33;12.40;99.90
28725;DHT22;43472;48.980;9.646;2023-08-06T22:47:36;12.50;99.90
28725;DHT22;43472;48.980;9.646;2023-08-06T22:52:38;12.70;99.90
28725;DHT22;43472;48.980;9.646;2023-08-06T22:57:40;12.50;99.90
28725;DHT22;43472;48.980;9.646;2023-08-06T23:02:42;12.70;99.90
28725;DHT22;43472;48.980;9.646;2023-08-06T23:07:59;12.60;99.90
28725;DHT22;43472;48.980;9.646;2023-08-06T23:13:01;12.70;99.90
28725;DHT22;43472;48.980;9.646;2023-08-06T23:18:03;12.30;99.90
28725;DHT22;43472;48.980;9.646;2023-08-06T23:23:05;12.40;99.90
28725;DHT22;43472;48.980;9.646;2023-08-06T23:28:07;12.70;99.90
28725;DHT22;43472;48.980;9.646;2023-08-06T23:33:08;12.60;99.90
28725;DHT22;43472;48.980;9.646;2023-08-06T23:38:10;12.70;99.90
28725;DHT22;43472;48.980;9.646;2023-08-06T23:43:12;12.80;99.90
28725;DHT22;43472;48.980;9.646;2023-08-06T23:48:15;12.60;99.90
28725;DHT22;43472;48.980;9.646;2023-08-06T23:53:17;12.70;99.90
28725;DHT22;43472;48.980;9.646;2023-08-06T23:58:19;12.50;99.90
